Impacts METAR Board
IDs:

KPIT - Pittsburgh Intl, PA, US

Updated at: 2000 UTC 25 Apr 2018
Potential Impact None Slight Moderate High
Time 25/08Z 25/09Z 25/10Z 25/11Z 25/12Z 25/13Z 25/14Z 25/15Z 25/16Z 25/17Z 25/18Z 25/19Z 25/20Z
Temp51 50 50 51 51 53 54 57 57 55 56 57 55
Dewpt49 49 49 49 49 50 50 50 50 51 52 51 53
Altim29.85 29.84 29.84 29.83 29.83 29.83 29.83 29.83 29.83 29.82 29.81 29.80 29.80
VIS10 8 10 10 10 10 10 10 10 10 8 10 4
CIG50 70 80 30 220 31 30 26 15 17 17 22 17
CoverOVCOVCOVCOVCBKNBKNOVCOVCOVCOVCOVCOVCOVC
FltCatVFRVFRVFRMVFRVFRVFRMVFRMVFRMVFRMVFRMVFRMVFRMVFR
WX-------------------RA-DZ---DZ BR
WDir7060040701000290310290300310310
WSpd3 3 0 3 3 3 0 5 9 9 10 13 10
WGst-- -- -- -- -- -- -- -- -- -- -- -- --
Raw hourly METARs
KPIT 250751Z 07003KT 10SM OVC050 11/09 A2985 RMK AO2 SLP116 T01060094
KPIT 250851Z 06003KT 8SM OVC070 10/09 A2984 RMK AO2 SLP113 T01000094 56015
KPIT 250951Z 00000KT 10SM SCT045 OVC080 10/09 A2984 RMK AO2 SLP112 T01000094
KPIT 251051Z 04003KT 10SM BKN030 OVC080 11/09 A2983 RMK AO2 SLP111 BINOVC T01060094
KPIT 251151Z 07003KT 10SM SCT032 SCT085 BKN220 11/09 A2983 RMK AO2 SLP110 BINOVC 70047 T01060094 10106 20100 56003
KPIT 251251Z 10003KT 10SM FEW008 BKN031 BKN085 12/10 A2983 RMK AO2 SLP109 T01170100
KPIT 251351Z 00000KT 10SM SCT008 OVC030 12/10 A2983 RMK AO2 SLP108 T01220100
KPIT 251451Z 29005KT 10SM BKN026 BKN034 OVC041 14/10 A2983 RMK AO2 SLP109 T01390100 55000
KPIT 251551Z 31009KT 10SM BKN015 OVC021 14/10 A2983 RMK AO2 SLP109 T01390100
KPIT 251651Z 29009KT 10SM -RA SCT012 BKN017 OVC023 13/11 A2982 RMK AO2 RAB26 SLP106 P0000 T01280106
KPIT 251751Z 30010KT 8SM -DZ SCT011 BKN017 OVC024 13/11 A2981 RMK AO2 RAE49DZB49 SLP103 P0000 60000 T01330111 10144 20106 58006
KPIT 251851Z 31013KT 10SM FEW012 BKN022 OVC036 14/11 A2980 RMK AO2 DZE36 SLP100 P0000 T01390106
KPIT 251951Z 31010KT 4SM -DZ BR SCT007 BKN017 OVC028 13/12 A2980 RMK AO2 RAB15E36DZB36 SLP100 P0000 T01280117



Page loaded:  20:23 UTC  |   01:23 PM Pacific  |   02:23 PM Mountain  |   03:23 PM Central  |   04:23 PM Eastern

 

ADVISORIES

FORECASTS

FORECASTS

OBSERVATIONS

USER TOOLS

ABOUT US